Terminal Aerodrome Forecast
Issued by NWS Mt. Holly, NJ

Home | Current Version | Previous Version | Text Only | Print | Product List | Glossary On
Versions: 1 2 3 4 5 6 7 8 9 10 11 12 13 14 15 16 17 18 19 20
365
FTUS41 KPHI 092325
TAFILG
TAF
KILG 092325Z 1000/1024 29012KT P6SM SCT050
     FM100100 29009KT P6SM SCT050
      TEMPO 1001/1003 BKN050
     FM100900 29009KT P6SM FEW050 BKN200
     FM101700 29012G18KT P6SM FEW050 BKN200=

USA.gov is the U.S. government's official web portal to all federal, state and local government web resources and services.